createdAt,value
2023-12-23T00:01:21.439Z,95650.47
2023-12-23T00:03:49.347Z,95644.41
2023-12-23T00:06:17.303Z,95641.69
2023-12-23T00:08:45.109Z,95645.34
2023-12-23T00:11:12.855Z,95635.41
2023-12-23T00:13:42.023Z,95643.03
2023-12-23T00:16:09.958Z,95640.34
2023-12-23T00:18:37.896Z,95649.59
2023-12-23T00:21:06.148Z,95656.22
2023-12-23T00:23:34.001Z,95651.28
2023-12-23T00:26:01.785Z,95628.66
2023-12-23T00:28:29.616Z,95630.38
2023-12-23T00:30:58.670Z,95618.53
2023-12-23T00:33:26.838Z,95620.31
2023-12-23T00:35:54.540Z,95612.88
2023-12-23T00:38:22.561Z,95619.69
2023-12-23T00:40:50.328Z,95621.88
2023-12-23T00:43:18.127Z,95628.88
2023-12-23T00:45:45.867Z,95631.56
2023-12-23T00:48:15.045Z,95665.63
2023-12-23T00:50:42.896Z,95685.69
2023-12-23T00:53:10.657Z,95707.59
2023-12-23T00:55:38.991Z,95708.13
2023-12-23T00:58:06.766Z,95715.13
2023-12-23T01:00:36.270Z,95719.78
2023-12-23T01:03:05.151Z,95716.75
2023-12-23T01:05:35.072Z,95729.22
2023-12-23T01:08:02.987Z,95728.16
2023-12-23T01:10:32.958Z,95739.06
2023-12-23T01:13:00.754Z,95735.50
2023-12-23T01:15:29.106Z,95740.59
2023-12-23T01:17:56.989Z,95744.31
2023-12-23T01:20:24.907Z,95767.38
2023-12-23T01:22:54.102Z,95754.19
2023-12-23T01:25:23.462Z,95777.22
2023-12-23T01:27:51.647Z,95776.94
2023-12-23T01:30:19.684Z,95791.84
2023-12-23T01:32:47.517Z,95798.31
2023-12-23T01:35:15.488Z,95802.88
2023-12-23T01:37:44.628Z,95802.25
2023-12-23T01:40:14.118Z,95822.34
2023-12-23T01:42:42.096Z,95815.25
2023-12-23T01:45:10.780Z,95818.00
2023-12-23T01:47:40.070Z,95823.97
2023-12-23T01:50:08.431Z,95821.06
2023-12-23T01:52:36.291Z,95841.19
2023-12-23T01:55:04.308Z,95840.53
2023-12-23T01:57:33.479Z,95840.84
2023-12-23T02:00:01.332Z,95864.06
2023-12-23T02:02:29.714Z,95865.81
2023-12-23T02:04:57.777Z,95877.53
2023-12-23T02:07:25.585Z,95888.06
2023-12-23T02:09:53.404Z,95888.22
2023-12-23T02:12:24.815Z,95906.41
2023-12-23T02:14:57.716Z,95904.16
2023-12-23T02:17:25.522Z,95902.31
2023-12-23T02:19:53.378Z,95917.75
2023-12-23T02:22:22.475Z,95916.28
2023-12-23T02:24:50.242Z,95913.84
2023-12-23T02:27:21.909Z,95917.75
2023-12-23T02:29:49.699Z,95920.84
2023-12-23T02:32:17.974Z,95920.84
2023-12-23T02:34:45.854Z,95929.47
2023-12-23T02:37:13.669Z,95922.97
2023-12-23T02:39:42.704Z,95919.41
2023-12-23T02:42:10.512Z,95928.78
2023-12-23T02:44:37.379Z,95925.09
2023-12-23T02:47:05.437Z,95929.13
2023-12-23T02:49:33.169Z,95934.00
2023-12-23T02:52:00.971Z,95934.00
2023-12-23T02:54:28.716Z,95957.22
2023-12-23T02:56:57.843Z,95956.22
2023-12-23T02:59:25.600Z,95970.03
2023-12-23T03:01:54.456Z,95981.72
2023-12-23T03:04:24.399Z,95988.84
2023-12-23T03:06:52.163Z,95997.28
2023-12-23T03:09:20.001Z,96005.09
2023-12-23T03:11:48.923Z,95999.25
2023-12-23T03:14:18.320Z,96009.63
2023-12-23T03:16:46.297Z,96003.31
2023-12-23T03:19:14.419Z,96012.72
2023-12-23T03:21:45.488Z,96020.03
2023-12-23T03:24:13.318Z,96027.81
2023-12-23T03:26:41.190Z,96041.44
2023-12-23T03:29:09.082Z,96040.81
2023-12-23T03:31:38.322Z,96044.53
2023-12-23T03:34:06.242Z,96051.69
2023-12-23T03:36:34.024Z,96046.47
2023-12-23T03:39:01.803Z,96050.53
2023-12-23T03:41:29.921Z,96053.13
2023-12-23T03:43:57.698Z,96059.59
2023-12-23T03:46:25.454Z,96045.00
2023-12-23T03:48:54.578Z,96057.69
2023-12-23T03:51:24.478Z,96056.88
2023-12-23T03:53:52.802Z,96070.34
2023-12-23T03:56:21.402Z,96070.34
2023-12-23T03:58:49.344Z,96075.38
2023-12-23T04:01:19.079Z,96067.59
2023-12-23T04:03:47.691Z,96075.03
2023-12-23T04:06:17.817Z,96068.22
2023-12-23T04:08:45.610Z,96077.78
2023-12-23T04:11:13.446Z,96080.06
2023-12-23T04:13:41.335Z,96079.41
2023-12-23T04:16:10.596Z,96099.41
2023-12-23T04:18:39.640Z,96104.25
2023-12-23T04:21:10.727Z,96111.56
2023-12-23T04:23:40.358Z,96120.97
2023-12-23T04:26:11.928Z,96109.63
2023-12-23T04:28:39.818Z,96112.84
2023-12-23T04:31:07.870Z,96113.53
2023-12-23T04:33:36.380Z,96114.81
2023-12-23T04:36:05.207Z,96118.03
2023-12-23T04:38:36.373Z,96119.50
2023-12-23T04:41:05.806Z,96121.94
2023-12-23T04:43:37.063Z,96121.63
2023-12-23T04:46:05.160Z,96125.38
2023-12-23T04:48:32.974Z,96118.06
2023-12-23T04:51:00.843Z,96120.97
2023-12-23T04:53:29.129Z,96123.25
2023-12-23T04:55:57.718Z,96113.50
2023-12-23T04:58:27.400Z,96109.59
2023-12-23T05:00:55.523Z,96110.91
2023-12-23T05:03:23.407Z,96119.38
2023-12-23T05:05:51.842Z,96108.94
2023-12-23T05:08:19.775Z,96120.34
2023-12-23T05:10:47.581Z,96121.31
2023-12-23T05:13:16.474Z,96115.44
2023-12-23T05:15:45.582Z,96110.41
2023-12-23T05:18:14.088Z,96119.03
2023-12-23T05:20:41.876Z,96100.22
2023-12-23T05:23:09.704Z,96112.69
2023-12-23T05:25:37.643Z,96111.53
2023-12-23T05:28:06.829Z,96123.59
2023-12-23T05:30:34.651Z,96117.06
2023-12-23T05:33:03.856Z,96109.94
2023-12-23T05:35:31.600Z,96114.47
2023-12-23T05:38:03.105Z,96105.41
2023-12-23T05:40:31.925Z,96109.28
2023-12-23T05:42:59.685Z,96095.97
2023-12-23T05:45:27.358Z,96089.31
2023-12-23T05:47:55.234Z,96077.50
2023-12-23T05:50:24.450Z,96070.66
2023-12-23T05:52:52.574Z,96053.94
2023-12-23T05:55:20.599Z,96048.44
2023-12-23T05:57:48.432Z,96036.28
2023-12-23T06:00:17.201Z,96027.03
2023-12-23T06:02:44.956Z,96021.00
2023-12-23T06:05:12.737Z,96010.16
2023-12-23T06:07:41.872Z,95999.59
2023-12-23T06:10:10.418Z,95997.66
2023-12-23T06:12:38.270Z,96001.22
2023-12-23T06:15:07.074Z,95989.84
2023-12-23T06:17:34.999Z,95989.84
2023-12-23T06:20:02.912Z,95988.53
2023-12-23T06:22:30.758Z,95988.53
2023-12-23T06:24:59.899Z,95993.13
2023-12-23T06:27:27.651Z,95991.50
2023-12-23T06:29:55.497Z,95991.47
2023-12-23T06:32:24.488Z,95996.84
2023-12-23T06:34:52.383Z,95986.13
2023-12-23T06:37:20.209Z,95974.63
2023-12-23T06:39:47.955Z,95979.97
2023-12-23T06:42:17.255Z,95985.81
2023-12-23T06:44:45.086Z,95982.72
2023-12-23T06:47:12.908Z,95982.72
2023-12-23T06:49:40.845Z,95985.81
2023-12-23T06:52:08.716Z,95985.00
2023-12-23T06:54:36.589Z,95980.28
2023-12-23T06:57:04.788Z,95987.59
2023-12-23T06:59:33.931Z,95979.63
2023-12-23T07:02:01.767Z,95982.72
2023-12-23T07:04:29.545Z,95982.69
2023-12-23T07:06:57.406Z,95972.50
2023-12-23T07:09:25.235Z,95972.63
2023-12-23T07:11:54.224Z,95973.78
2023-12-23T07:14:22.102Z,95964.03
2023-12-23T07:16:51.345Z,95959.00
2023-12-23T07:19:19.337Z,95969.38
2023-12-23T07:21:49.568Z,95960.91
2023-12-23T07:24:17.304Z,95959.28
2023-12-23T07:26:44.981Z,95961.28
2023-12-23T07:29:13.091Z,95953.78
2023-12-23T07:31:40.945Z,95954.28
2023-12-23T07:34:10.149Z,95960.16
2023-12-23T07:36:37.997Z,95950.25
2023-12-23T07:39:06.345Z,95942.00
2023-12-23T07:41:34.122Z,95950.44
2023-12-23T07:44:01.004Z,95943.16
2023-12-23T07:46:28.779Z,95945.72
2023-12-23T07:48:56.613Z,95936.03
2023-12-23T07:51:25.760Z,95933.78
2023-12-23T07:53:53.782Z,95934.09
2023-12-23T07:56:21.810Z,95922.25
2023-12-23T07:58:49.720Z,95917.38
2023-12-23T08:01:17.713Z,95928.91
2023-12-23T08:03:45.479Z,95921.13
2023-12-23T08:06:13.363Z,95918.19
2023-12-23T08:08:42.693Z,95923.22
2023-12-23T08:11:10.527Z,95914.16
2023-12-23T08:13:38.458Z,95913.31
2023-12-23T08:16:07.044Z,95904.91
2023-12-23T08:18:35.004Z,95906.84
2023-12-23T08:21:04.528Z,95908.94
2023-12-23T08:23:32.551Z,95908.94
2023-12-23T08:26:01.716Z,95904.41
2023-12-23T08:28:29.537Z,95900.84
2023-12-23T08:30:57.387Z,95894.50
2023-12-23T08:33:25.626Z,95893.41
2023-12-23T08:35:53.426Z,95892.09
2023-12-23T08:38:21.191Z,95896.31
2023-12-23T08:40:48.999Z,95893.56
2023-12-23T08:43:19.137Z,95897.47
2023-12-23T08:45:49.941Z,95897.44
2023-12-23T08:48:17.851Z,95890.81
2023-12-23T08:50:45.644Z,95897.13
2023-12-23T08:53:13.394Z,95889.00
2023-12-23T08:55:41.168Z,95894.03
2023-12-23T08:58:08.963Z,95889.03
2023-12-23T09:00:38.527Z,95889.34
2023-12-23T09:03:06.716Z,95883.69
2023-12-23T09:05:34.768Z,95882.22
2023-12-23T09:08:02.674Z,95882.19
2023-12-23T09:10:30.594Z,95884.47
2023-12-23T09:12:58.307Z,95879.63
2023-12-23T09:15:43.412Z,95878.31
2023-12-23T09:18:12.647Z,95873.78
2023-12-23T09:20:40.539Z,95876.88
2023-12-23T09:23:08.500Z,95867.28
2023-12-23T09:25:36.404Z,95865.50
2023-12-23T09:28:04.272Z,95858.69
2023-12-23T09:30:32.033Z,95861.59
2023-12-23T09:32:59.838Z,95852.88
2023-12-23T09:35:29.358Z,95856.59
2023-12-23T09:37:57.347Z,95852.19
2023-12-23T09:40:25.196Z,95845.88
2023-12-23T09:42:52.970Z,95848.41
2023-12-23T09:45:21.139Z,95827.94
2023-12-23T09:47:49.363Z,95831.63
2023-12-23T09:50:17.629Z,95815.44
2023-12-23T09:52:46.869Z,95815.44
2023-12-23T09:55:14.659Z,95820.19
2023-12-23T09:57:42.576Z,95804.22
2023-12-23T10:00:12.068Z,95803.41
2023-12-23T10:02:39.938Z,95780.16
2023-12-23T10:05:09.224Z,95777.41
2023-12-23T10:07:37.106Z,95771.41
2023-12-23T10:10:07.393Z,95775.13
2023-12-23T10:12:35.380Z,95777.38
2023-12-23T10:15:03.198Z,95762.84
2023-12-23T10:17:31.050Z,95762.50
2023-12-23T10:19:58.913Z,95759.59
2023-12-23T10:22:28.549Z,95755.47
2023-12-23T10:24:57.034Z,95764.69
2023-12-23T10:27:26.196Z,95751.81
2023-12-23T10:29:54.038Z,95750.84
2023-12-23T10:32:25.145Z,95757.03
2023-12-23T10:34:53.139Z,95751.06
2023-12-23T10:37:20.930Z,95735.75
2023-12-23T10:39:51.311Z,95717.41
2023-12-23T10:42:21.456Z,95709.50
2023-12-23T10:44:50.605Z,95722.69
2023-12-23T10:47:18.430Z,95719.34
2023-12-23T10:49:47.441Z,95724.03
2023-12-23T10:52:15.412Z,95731.34
2023-12-23T10:54:43.593Z,95729.94
2023-12-23T10:57:11.636Z,95729.94
2023-12-23T10:59:39.532Z,95733.22
2023-12-23T11:02:13.662Z,95746.66
2023-12-23T11:04:42.261Z,95757.50
2023-12-23T11:07:10.181Z,95745.34
2023-12-23T11:09:38.054Z,95743.25
2023-12-23T11:12:06.996Z,95758.44
2023-12-23T11:14:34.734Z,95763.31
2023-12-23T11:17:02.528Z,95754.56
2023-12-23T11:19:31.743Z,95760.72
2023-12-23T11:22:21.666Z,95778.22
2023-12-23T11:24:49.472Z,95783.69
2023-12-23T11:27:30.993Z,95802.84
2023-12-23T11:30:01.695Z,95796.66
2023-12-23T11:32:38.046Z,95802.16
2023-12-23T11:35:09.811Z,95819.00
2023-12-23T11:37:51.192Z,95835.69
2023-12-23T11:40:19.492Z,95828.69
2023-12-23T11:42:46.272Z,95848.78
2023-12-23T11:45:14.190Z,95855.56
2023-12-23T11:47:42.146Z,95857.19
2023-12-23T11:50:13.039Z,95877.94
2023-12-23T11:52:42.412Z,95883.13
2023-12-23T11:55:10.700Z,95894.97
2023-12-23T11:57:38.673Z,95908.41
2023-12-23T12:00:08.137Z,95915.53
2023-12-23T12:02:38.485Z,95925.78
2023-12-23T12:05:07.140Z,95928.56
2023-12-23T12:07:36.527Z,95949.59
2023-12-23T12:10:04.620Z,95944.44
2023-12-23T12:12:32.529Z,95944.72
2023-12-23T12:15:00.495Z,95952.19
2023-12-23T12:17:28.632Z,95967.72
2023-12-23T12:19:56.467Z,95970.31
2023-12-23T12:22:24.278Z,95964.34
2023-12-23T12:24:53.356Z,95985.94
2023-12-23T12:27:21.148Z,95985.06
2023-12-23T12:29:48.917Z,95981.13
2023-12-23T12:32:16.847Z,96002.06
2023-12-23T12:34:47.446Z,96008.44
2023-12-23T12:37:19.049Z,96012.47
2023-12-23T12:39:46.870Z,96007.56
2023-12-23T12:42:16.812Z,96013.72
2023-12-23T12:44:44.764Z,96023.81
2023-12-23T12:47:12.636Z,96027.91
2023-12-23T12:49:55.620Z,96035.75
2023-12-23T12:52:31.762Z,96041.03
2023-12-23T12:55:00.146Z,96047.19
2023-12-23T12:57:29.601Z,96065.50
2023-12-23T12:59:57.364Z,96065.31
2023-12-23T13:02:25.499Z,96069.06
2023-12-23T13:04:55.667Z,96080.75
2023-12-23T13:07:24.531Z,96091.88
2023-12-23T13:09:52.405Z,96091.19
2023-12-23T13:12:20.234Z,96090.56
2023-12-23T13:14:49.360Z,96113.94
2023-12-23T13:17:17.496Z,96120.16
2023-12-23T13:19:47.455Z,96115.69
